sensor_id;sensor_type;location;lat;lon;timestamp;temperature;humidity
13856;DHT22;6998;53.608;9.958;2022-10-17T00:00:42;11.70;99.90
13856;DHT22;6998;53.608;9.958;2022-10-17T00:03:10;11.70;99.90
13856;DHT22;6998;53.608;9.958;2022-10-17T00:05:39;11.70;99.90
13856;DHT22;6998;53.608;9.958;2022-10-17T00:08:06;11.70;99.90
13856;DHT22;6998;53.608;9.958;2022-10-17T00:10:34;11.70;99.90
13856;DHT22;6998;53.608;9.958;2022-10-17T00:13:02;11.70;99.90
13856;DHT22;6998;53.608;9.958;2022-10-17T00:15:29;11.70;99.90
13856;DHT22;6998;53.608;9.958;2022-10-17T00:17:56;11.70;99.90
13856;DHT22;6998;53.608;9.958;2022-10-17T00:20:23;11.70;99.90
13856;DHT22;6998;53.608;9.958;2022-10-17T00:22:50;11.70;99.90
13856;DHT22;6998;53.608;9.958;2022-10-17T00:25:17;11.70;99.90
13856;DHT22;6998;53.608;9.958;2022-10-17T00:27:45;11.80;99.90
13856;DHT22;6998;53.608;9.958;2022-10-17T00:30:14;11.80;99.90
13856;DHT22;6998;53.608;9.958;2022-10-17T00:32:41;11.80;99.90
13856;DHT22;6998;53.608;9.958;2022-10-17T00:35:08;11.80;99.90
13856;DHT22;6998;53.608;9.958;2022-10-17T00:37:36;11.80;99.90
13856;DHT22;6998;53.608;9.958;2022-10-17T00:40:04;11.80;99.90
13856;DHT22;6998;53.608;9.958;2022-10-17T00:42:31;11.80;99.90
13856;DHT22;6998;53.608;9.958;2022-10-17T00:45:06;11.80;99.90
13856;DHT22;6998;53.608;9.958;2022-10-17T00:47:34;11.80;99.90
13856;DHT22;6998;53.608;9.958;2022-10-17T00:50:03;11.80;99.90
13856;DHT22;6998;53.608;9.958;2022-10-17T00:52:31;11.80;99.90
13856;DHT22;6998;53.608;9.958;2022-10-17T00:55:01;11.80;99.90
13856;DHT22;6998;53.608;9.958;2022-10-17T00:57:30;11.80;99.90
13856;DHT22;6998;53.608;9.958;2022-10-17T01:00:00;11.80;99.90
13856;DHT22;6998;53.608;9.958;2022-10-17T01:02:28;11.90;99.90
13856;DHT22;6998;53.608;9.958;2022-10-17T01:04:55;11.90;99.90
13856;DHT22;6998;53.608;9.958;2022-10-17T01:07:24;11.90;99.90
13856;DHT22;6998;53.608;9.958;2022-10-17T01:09:50;11.90;99.90
13856;DHT22;6998;53.608;9.958;2022-10-17T01:12:20;11.90;99.90
13856;DHT22;6998;53.608;9.958;2022-10-17T01:15:00;11.90;99.90
13856;DHT22;6998;53.608;9.958;2022-10-17T01:17:34;11.90;99.90
13856;DHT22;6998;53.608;9.958;2022-10-17T01:20:30;11.90;99.90
13856;DHT22;6998;53.608;9.958;2022-10-17T01:23:22;11.90;99.90
13856;DHT22;6998;53.608;9.958;2022-10-17T01:25:55;12.00;99.90
13856;DHT22;6998;53.608;9.958;2022-10-17T01:28:49;12.00;99.90
13856;DHT22;6998;53.608;9.958;2022-10-17T01:31:24;12.00;99.90
13856;DHT22;6998;53.608;9.958;2022-10-17T01:33:59;12.00;99.90
13856;DHT22;6998;53.608;9.958;2022-10-17T01:36:35;12.00;99.90
13856;DHT22;6998;53.608;9.958;2022-10-17T01:39:11;12.00;99.90
13856;DHT22;6998;53.608;9.958;2022-10-17T01:41:43;12.00;99.90
13856;DHT22;6998;53.608;9.958;2022-10-17T01:44:16;12.00;99.90
13856;DHT22;6998;53.608;9.958;2022-10-17T01:46:48;12.00;99.90
13856;DHT22;6998;53.608;9.958;2022-10-17T01:49:18;12.00;99.90
13856;DHT22;6998;53.608;9.958;2022-10-17T01:51:50;12.10;99.90
13856;DHT22;6998;53.608;9.958;2022-10-17T01:54:21;12.10;99.90
13856;DHT22;6998;53.608;9.958;2022-10-17T01:56:53;12.10;99.90
13856;DHT22;6998;53.608;9.958;2022-10-17T01:59:24;12.10;99.90
13856;DHT22;6998;53.608;9.958;2022-10-17T02:01:54;12.10;99.90
13856;DHT22;6998;53.608;9.958;2022-10-17T02:04:24;12.10;99.90
13856;DHT22;6998;53.608;9.958;2022-10-17T02:06:50;12.10;99.90
13856;DHT22;6998;53.608;9.958;2022-10-17T02:09:20;12.10;99.90
13856;DHT22;6998;53.608;9.958;2022-10-17T02:11:56;12.10;99.90
13856;DHT22;6998;53.608;9.958;2022-10-17T02:14:34;12.10;99.90
13856;DHT22;6998;53.608;9.958;2022-10-17T02:17:10;12.10;99.90
13856;DHT22;6998;53.608;9.958;2022-10-17T02:19:45;12.20;99.90
13856;DHT22;6998;53.608;9.958;2022-10-17T02:22:20;12.20;99.90
13856;DHT22;6998;53.608;9.958;2022-10-17T02:24:51;12.20;99.90
13856;DHT22;6998;53.608;9.958;2022-10-17T02:27:28;12.20;99.90
13856;DHT22;6998;53.608;9.958;2022-10-17T02:30:04;12.20;99.90
13856;DHT22;6998;53.608;9.958;2022-10-17T02:32:39;12.20;99.90
13856;DHT22;6998;53.608;9.958;2022-10-17T02:35:10;12.20;99.90
13856;DHT22;6998;53.608;9.958;2022-10-17T02:37:41;12.20;99.90
13856;DHT22;6998;53.608;9.958;2022-10-17T02:40:10;12.20;99.90
13856;DHT22;6998;53.608;9.958;2022-10-17T02:42:39;12.20;99.90
13856;DHT22;6998;53.608;9.958;2022-10-17T02:45:09;12.20;99.90
13856;DHT22;6998;53.608;9.958;2022-10-17T02:47:47;12.20;99.90
13856;DHT22;6998;53.608;9.958;2022-10-17T02:50:15;12.20;99.90
13856;DHT22;6998;53.608;9.958;2022-10-17T02:52:45;12.30;99.90
13856;DHT22;6998;53.608;9.958;2022-10-17T02:55:15;12.30;99.90
13856;DHT22;6998;53.608;9.958;2022-10-17T02:57:45;12.30;99.90
13856;DHT22;6998;53.608;9.958;2022-10-17T03:00:14;12.30;99.90
13856;DHT22;6998;53.608;9.958;2022-10-17T03:02:46;12.40;99.90
13856;DHT22;6998;53.608;9.958;2022-10-17T03:05:16;12.50;99.90
13856;DHT22;6998;53.608;9.958;2022-10-17T03:07:43;12.40;99.90
13856;DHT22;6998;53.608;9.958;2022-10-17T03:10:09;12.40;99.90
13856;DHT22;6998;53.608;9.958;2022-10-17T03:12:36;12.40;99.90
13856;DHT22;6998;53.608;9.958;2022-10-17T03:15:03;12.40;99.90
13856;DHT22;6998;53.608;9.958;2022-10-17T03:17:30;12.40;99.90
13856;DHT22;6998;53.608;9.958;2022-10-17T03:19:59;12.40;99.90
13856;DHT22;6998;53.608;9.958;2022-10-17T03:22:25;12.40;99.90
13856;DHT22;6998;53.608;9.958;2022-10-17T03:24:52;12.50;99.90
13856;DHT22;6998;53.608;9.958;2022-10-17T03:27:19;12.40;99.90
13856;DHT22;6998;53.608;9.958;2022-10-17T03:29:46;12.40;99.90
13856;DHT22;6998;53.608;9.958;2022-10-17T03:32:13;12.40;99.90
13856;DHT22;6998;53.608;9.958;2022-10-17T03:34:39;12.30;99.90
13856;DHT22;6998;53.608;9.958;2022-10-17T03:37:07;12.30;99.90
13856;DHT22;6998;53.608;9.958;2022-10-17T03:39:34;12.20;99.90
13856;DHT22;6998;53.608;9.958;2022-10-17T03:42:01;12.20;99.90
13856;DHT22;6998;53.608;9.958;2022-10-17T03:44:27;12.10;99.90
13856;DHT22;6998;53.608;9.958;2022-10-17T03:46:54;12.00;99.90
13856;DHT22;6998;53.608;9.958;2022-10-17T03:49:21;12.00;99.90
13856;DHT22;6998;53.608;9.958;2022-10-17T03:51:47;12.00;99.90
13856;DHT22;6998;53.608;9.958;2022-10-17T03:54:15;12.00;99.90
13856;DHT22;6998;53.608;9.958;2022-10-17T03:56:42;11.90;99.90
13856;DHT22;6998;53.608;9.958;2022-10-17T03:59:12;11.80;99.90
13856;DHT22;6998;53.608;9.958;2022-10-17T04:01:38;11.80;99.90
13856;DHT22;6998;53.608;9.958;2022-10-17T04:04:05;11.80;99.90
13856;DHT22;6998;53.608;9.958;2022-10-17T04:06:32;11.70;99.90
13856;DHT22;6998;53.608;9.958;2022-10-17T04:08:59;11.60;99.90
13856;DHT22;6998;53.608;9.958;2022-10-17T04:11:28;11.60;99.90
13856;DHT22;6998;53.608;9.958;2022-10-17T04:13:56;11.60;99.90
13856;DHT22;6998;53.608;9.958;2022-10-17T04:16:24;11.60;99.90
13856;DHT22;6998;53.608;9.958;2022-10-17T04:18:52;11.60;99.90
13856;DHT22;6998;53.608;9.958;2022-10-17T04:21:20;11.50;99.90
13856;DHT22;6998;53.608;9.958;2022-10-17T04:23:47;11.50;99.90
13856;DHT22;6998;53.608;9.958;2022-10-17T04:26:13;11.50;99.90
13856;DHT22;6998;53.608;9.958;2022-10-17T04:28:42;11.50;99.90
13856;DHT22;6998;53.608;9.958;2022-10-17T04:31:11;11.40;99.90
13856;DHT22;6998;53.608;9.958;2022-10-17T04:33:39;11.40;99.90
13856;DHT22;6998;53.608;9.958;2022-10-17T04:36:09;11.40;99.90
13856;DHT22;6998;53.608;9.958;2022-10-17T04:38:36;11.40;99.90
13856;DHT22;6998;53.608;9.958;2022-10-17T04:41:05;11.40;99.90
13856;DHT22;6998;53.608;9.958;2022-10-17T04:43:34;11.40;99.90
13856;DHT22;6998;53.608;9.958;2022-10-17T04:46:05;11.40;99.90
13856;DHT22;6998;53.608;9.958;2022-10-17T04:48:32;11.40;99.90
13856;DHT22;6998;53.608;9.958;2022-10-17T04:51:01;11.40;99.90
13856;DHT22;6998;53.608;9.958;2022-10-17T04:53:30;11.40;99.90
13856;DHT22;6998;53.608;9.958;2022-10-17T04:55:57;11.30;99.90
13856;DHT22;6998;53.608;9.958;2022-10-17T04:58:24;11.30;99.90
13856;DHT22;6998;53.608;9.958;2022-10-17T05:00:51;11.30;99.90
13856;DHT22;6998;53.608;9.958;2022-10-17T05:03:19;11.30;99.90
13856;DHT22;6998;53.608;9.958;2022-10-17T05:05:45;11.30;99.90
13856;DHT22;6998;53.608;9.958;2022-10-17T05:08:12;11.20;99.90
13856;DHT22;6998;53.608;9.958;2022-10-17T05:10:40;11.20;99.90
13856;DHT22;6998;53.608;9.958;2022-10-17T05:13:08;11.30;99.90
13856;DHT22;6998;53.608;9.958;2022-10-17T05:15:35;11.20;99.90
13856;DHT22;6998;53.608;9.958;2022-10-17T05:18:04;11.20;99.90
13856;DHT22;6998;53.608;9.958;2022-10-17T05:20:32;11.20;99.90
13856;DHT22;6998;53.608;9.958;2022-10-17T05:22:59;11.10;99.90
13856;DHT22;6998;53.608;9.958;2022-10-17T05:25:26;11.10;99.90
13856;DHT22;6998;53.608;9.958;2022-10-17T05:27:52;11.00;99.90
13856;DHT22;6998;53.608;9.958;2022-10-17T05:30:19;11.00;99.90
13856;DHT22;6998;53.608;9.958;2022-10-17T05:32:46;11.00;99.90
13856;DHT22;6998;53.608;9.958;2022-10-17T05:35:13;11.00;99.90
13856;DHT22;6998;53.608;9.958;2022-10-17T05:37:41;11.00;99.90
13856;DHT22;6998;53.608;9.958;2022-10-17T05:40:08;10.90;99.90
13856;DHT22;6998;53.608;9.958;2022-10-17T05:42:35;10.90;99.90
13856;DHT22;6998;53.608;9.958;2022-10-17T05:45:03;10.90;99.90
13856;DHT22;6998;53.608;9.958;2022-10-17T05:47:30;10.80;99.90
13856;DHT22;6998;53.608;9.958;2022-10-17T05:49:57;10.80;99.90
13856;DHT22;6998;53.608;9.958;2022-10-17T05:52:23;10.80;99.90
13856;DHT22;6998;53.608;9.958;2022-10-17T05:54:51;10.80;99.90
13856;DHT22;6998;53.608;9.958;2022-10-17T05:57:18;10.80;99.90
13856;DHT22;6998;53.608;9.958;2022-10-17T05:59:45;10.70;99.90
13856;DHT22;6998;53.608;9.958;2022-10-17T06:02:12;10.70;99.90
13856;DHT22;6998;53.608;9.958;2022-10-17T06:04:39;10.70;99.90
13856;DHT22;6998;53.608;9.958;2022-10-17T06:07:10;10.70;99.90
13856;DHT22;6998;53.608;9.958;2022-10-17T06:09:37;10.80;99.90
13856;DHT22;6998;53.608;9.958;2022-10-17T06:12:05;10.90;99.90
13856;DHT22;6998;53.608;9.958;2022-10-17T06:14:32;10.90;99.90
13856;DHT22;6998;53.608;9.958;2022-10-17T06:16:59;11.00;99.90
13856;DHT22;6998;53.608;9.958;2022-10-17T06:19:26;11.00;99.90
13856;DHT22;6998;53.608;9.958;2022-10-17T06:21:53;11.10;99.90
13856;DHT22;6998;53.608;9.958;2022-10-17T06:24:19;11.20;99.90
13856;DHT22;6998;53.608;9.958;2022-10-17T06:26:46;11.20;99.90
13856;DHT22;6998;53.608;9.958;2022-10-17T06:29:16;11.30;99.90
13856;DHT22;6998;53.608;9.958;2022-10-17T06:31:42;11.40;99.90
13856;DHT22;6998;53.608;9.958;2022-10-17T06:34:09;11.50;99.90
13856;DHT22;6998;53.608;9.958;2022-10-17T06:36:36;11.60;99.90
13856;DHT22;6998;53.608;9.958;2022-10-17T06:39:03;11.70;99.90
13856;DHT22;6998;53.608;9.958;2022-10-17T06:41:29;11.80;99.90
13856;DHT22;6998;53.608;9.958;2022-10-17T06:43:56;11.90;99.90
13856;DHT22;6998;53.608;9.958;2022-10-17T06:46:24;11.90;99.90
13856;DHT22;6998;53.608;9.958;2022-10-17T06:48:54;12.00;99.90
13856;DHT22;6998;53.608;9.958;2022-10-17T06:51:21;12.00;99.90
13856;DHT22;6998;53.608;9.958;2022-10-17T06:53:47;12.00;99.90
13856;DHT22;6998;53.608;9.958;2022-10-17T06:56:14;12.00;99.90
13856;DHT22;6998;53.608;9.958;2022-10-17T06:58:41;12.10;99.90
13856;DHT22;6998;53.608;9.958;2022-10-17T07:01:09;12.20;99.90
13856;DHT22;6998;53.608;9.958;2022-10-17T07:03:38;12.30;99.90
13856;DHT22;6998;53.608;9.958;2022-10-17T07:06:06;12.30;99.90
13856;DHT22;6998;53.608;9.958;2022-10-17T07:08:35;12.50;99.90
13856;DHT22;6998;53.608;9.958;2022-10-17T07:11:08;12.60;99.90
13856;DHT22;6998;53.608;9.958;2022-10-17T07:13:35;12.60;99.90
13856;DHT22;6998;53.608;9.958;2022-10-17T07:16:02;12.70;99.90
13856;DHT22;6998;53.608;9.958;2022-10-17T07:18:28;12.70;99.90
13856;DHT22;6998;53.608;9.958;2022-10-17T07:20:56;12.90;99.90
13856;DHT22;6998;53.608;9.958;2022-10-17T07:23:23;13.00;99.90
13856;DHT22;6998;53.608;9.958;2022-10-17T07:25:50;13.00;99.90
13856;DHT22;6998;53.608;9.958;2022-10-17T07:28:17;13.10;99.90
13856;DHT22;6998;53.608;9.958;2022-10-17T07:30:44;13.10;99.90
13856;DHT22;6998;53.608;9.958;2022-10-17T07:33:11;13.30;99.90
13856;DHT22;6998;53.608;9.958;2022-10-17T07:35:38;13.40;99.90
13856;DHT22;6998;53.608;9.958;2022-10-17T07:38:07;13.50;99.90
13856;DHT22;6998;53.608;9.958;2022-10-17T07:40:34;13.70;99.90
13856;DHT22;6998;53.608;9.958;2022-10-17T07:43:01;13.80;99.90
13856;DHT22;6998;53.608;9.958;2022-10-17T07:45:28;13.90;99.90
13856;DHT22;6998;53.608;9.958;2022-10-17T07:47:55;14.00;99.90
13856;DHT22;6998;53.608;9.958;2022-10-17T07:50:22;14.10;99.90
13856;DHT22;6998;53.608;9.958;2022-10-17T07:52:49;14.10;99.90
13856;DHT22;6998;53.608;9.958;2022-10-17T07:55:17;14.20;99.90
13856;DHT22;6998;53.608;9.958;2022-10-17T07:57:44;14.20;99.90
13856;DHT22;6998;53.608;9.958;2022-10-17T08:00:11;14.30;99.90
13856;DHT22;6998;53.608;9.958;2022-10-17T08:02:38;14.30;99.90
13856;DHT22;6998;53.608;9.958;2022-10-17T08:05:05;14.50;99.90
13856;DHT22;6998;53.608;9.958;2022-10-17T08:07:32;14.80;99.90
13856;DHT22;6998;53.608;9.958;2022-10-17T08:09:59;15.00;99.90
13856;DHT22;6998;53.608;9.958;2022-10-17T08:12:27;15.10;99.90
13856;DHT22;6998;53.608;9.958;2022-10-17T08:14:56;15.30;99.90
13856;DHT22;6998;53.608;9.958;2022-10-17T08:17:23;15.50;99.90
13856;DHT22;6998;53.608;9.958;2022-10-17T08:19:50;15.50;99.90
13856;DHT22;6998;53.608;9.958;2022-10-17T08:22:17;15.60;99.90
13856;DHT22;6998;53.608;9.958;2022-10-17T08:24:43;15.80;99.90
13856;DHT22;6998;53.608;9.958;2022-10-17T08:27:10;15.80;99.90
13856;DHT22;6998;53.608;9.958;2022-10-17T08:29:39;15.80;99.90
13856;DHT22;6998;53.608;9.958;2022-10-17T08:32:07;15.80;99.90
13856;DHT22;6998;53.608;9.958;2022-10-17T08:34:34;15.90;99.90
13856;DHT22;6998;53.608;9.958;2022-10-17T08:37:01;16.00;99.90
13856;DHT22;6998;53.608;9.958;2022-10-17T08:39:28;16.10;99.90
13856;DHT22;6998;53.608;9.958;2022-10-17T08:42:05;16.10;99.90
13856;DHT22;6998;53.608;9.958;2022-10-17T08:44:47;16.20;99.90
13856;DHT22;6998;53.608;9.958;2022-10-17T08:47:21;16.30;99.90
13856;DHT22;6998;53.608;9.958;2022-10-17T08:49:51;16.40;99.90
13856;DHT22;6998;53.608;9.958;2022-10-17T08:52:28;16.40;99.90
13856;DHT22;6998;53.608;9.958;2022-10-17T08:54:55;16.50;99.90
13856;DHT22;6998;53.608;9.958;2022-10-17T08:57:24;16.60;99.90
13856;DHT22;6998;53.608;9.958;2022-10-17T08:59:53;16.60;99.90
13856;DHT22;6998;53.608;9.958;2022-10-17T09:02:38;16.70;99.90
13856;DHT22;6998;53.608;9.958;2022-10-17T09:05:33;16.80;99.90
13856;DHT22;6998;53.608;9.958;2022-10-17T09:08:11;17.00;99.90
13856;DHT22;6998;53.608;9.958;2022-10-17T09:10:49;17.00;99.90
13856;DHT22;6998;53.608;9.958;2022-10-17T09:13:26;17.10;99.90
13856;DHT22;6998;53.608;9.958;2022-10-17T09:16:10;17.30;99.90
13856;DHT22;6998;53.608;9.958;2022-10-17T09:18:44;17.40;99.90
13856;DHT22;6998;53.608;9.958;2022-10-17T09:21:18;17.50;99.90
13856;DHT22;6998;53.608;9.958;2022-10-17T09:23:49;17.70;99.90
13856;DHT22;6998;53.608;9.958;2022-10-17T09:26:17;17.70;99.90
13856;DHT22;6998;53.608;9.958;2022-10-17T09:28:50;17.80;99.90
13856;DHT22;6998;53.608;9.958;2022-10-17T09:31:21;17.90;99.90
13856;DHT22;6998;53.608;9.958;2022-10-17T09:33:49;18.00;99.90
13856;DHT22;6998;53.608;9.958;2022-10-17T09:36:18;18.10;99.90
13856;DHT22;6998;53.608;9.958;2022-10-17T09:38:48;18.00;99.90
13856;DHT22;6998;53.608;9.958;2022-10-17T09:41:19;18.00;99.90
13856;DHT22;6998;53.608;9.958;2022-10-17T09:43:46;18.00;99.90
13856;DHT22;6998;53.608;9.958;2022-10-17T09:46:17;18.10;99.90
13856;DHT22;6998;53.608;9.958;2022-10-17T09:48:52;18.10;99.90
13856;DHT22;6998;53.608;9.958;2022-10-17T09:51:19;18.10;99.90
13856;DHT22;6998;53.608;9.958;2022-10-17T09:53:49;18.30;99.90
13856;DHT22;6998;53.608;9.958;2022-10-17T09:56:18;18.40;99.90
13856;DHT22;6998;53.608;9.958;2022-10-17T09:58:46;18.50;99.90
13856;DHT22;6998;53.608;9.958;2022-10-17T10:01:16;18.70;99.90
13856;DHT22;6998;53.608;9.958;2022-10-17T10:03:43;18.80;99.90
13856;DHT22;6998;53.608;9.958;2022-10-17T10:06:15;19.00;99.90
13856;DHT22;6998;53.608;9.958;2022-10-17T10:08:48;19.10;99.90
13856;DHT22;6998;53.608;9.958;2022-10-17T10:11:16;19.20;99.90
13856;DHT22;6998;53.608;9.958;2022-10-17T10:13:45;19.30;99.90
13856;DHT22;6998;53.608;9.958;2022-10-17T10:16:15;19.30;99.90
13856;DHT22;6998;53.608;9.958;2022-10-17T10:18:43;19.40;99.90
13856;DHT22;6998;53.608;9.958;2022-10-17T10:21:13;19.40;99.90
13856;DHT22;6998;53.608;9.958;2022-10-17T10:23:41;19.40;99.90
13856;DHT22;6998;53.608;9.958;2022-10-17T10:26:21;19.50;99.90
13856;DHT22;6998;53.608;9.958;2022-10-17T10:28:56;19.50;99.90
13856;DHT22;6998;53.608;9.958;2022-10-17T10:31:30;19.50;99.90
13856;DHT22;6998;53.608;9.958;2022-10-17T10:33:59;19.60;99.90
13856;DHT22;6998;53.608;9.958;2022-10-17T10:36:43;19.60;99.90
13856;DHT22;6998;53.608;9.958;2022-10-17T10:39:24;19.70;99.90
13856;DHT22;6998;53.608;9.958;2022-10-17T10:41:52;19.70;99.90
13856;DHT22;6998;53.608;9.958;2022-10-17T10:44:23;19.80;99.90
13856;DHT22;6998;53.608;9.958;2022-10-17T10:47:16;19.80;99.90
13856;DHT22;6998;53.608;9.958;2022-10-17T10:49:44;19.90;99.90
13856;DHT22;6998;53.608;9.958;2022-10-17T10:52:29;20.10;99.90
13856;DHT22;6998;53.608;9.958;2022-10-17T10:55:05;20.20;99.90
13856;DHT22;6998;53.608;9.958;2022-10-17T10:57:40;20.20;99.90
13856;DHT22;6998;53.608;9.958;2022-10-17T11:00:14;20.30;99.90
13856;DHT22;6998;53.608;9.958;2022-10-17T11:02:47;20.30;99.90
13856;DHT22;6998;53.608;9.958;2022-10-17T11:05:20;20.30;99.90
13856;DHT22;6998;53.608;9.958;2022-10-17T11:07:58;20.30;99.90
13856;DHT22;6998;53.608;9.958;2022-10-17T11:10:30;20.20;99.90
13856;DHT22;6998;53.608;9.958;2022-10-17T11:13:03;20.20;99.90
13856;DHT22;6998;53.608;9.958;2022-10-17T11:15:34;20.10;99.90
13856;DHT22;6998;53.608;9.958;2022-10-17T11:18:04;20.10;99.90
13856;DHT22;6998;53.608;9.958;2022-10-17T11:20:37;20.10;99.90
13856;DHT22;6998;53.608;9.958;2022-10-17T11:23:16;20.10;99.90
13856;DHT22;6998;53.608;9.958;2022-10-17T11:25:46;20.20;99.90
13856;DHT22;6998;53.608;9.958;2022-10-17T11:28:16;20.20;99.90
13856;DHT22;6998;53.608;9.958;2022-10-17T11:30:49;20.30;99.90
13856;DHT22;6998;53.608;9.958;2022-10-17T11:33:23;20.40;99.90
13856;DHT22;6998;53.608;9.958;2022-10-17T11:35:52;20.40;99.90
13856;DHT22;6998;53.608;9.958;2022-10-17T11:38:26;20.50;99.90
13856;DHT22;6998;53.608;9.958;2022-10-17T11:40:58;20.50;99.90
13856;DHT22;6998;53.608;9.958;2022-10-17T11:43:29;20.60;99.90
13856;DHT22;6998;53.608;9.958;2022-10-17T11:46:01;20.70;99.90
13856;DHT22;6998;53.608;9.958;2022-10-17T11:48:34;20.80;99.90
13856;DHT22;6998;53.608;9.958;2022-10-17T11:51:07;20.80;99.90
13856;DHT22;6998;53.608;9.958;2022-10-17T11:53:45;20.70;99.90
13856;DHT22;6998;53.608;9.958;2022-10-17T11:56:14;20.60;99.90
13856;DHT22;6998;53.608;9.958;2022-10-17T11:58:48;20.50;99.90
13856;DHT22;6998;53.608;9.958;2022-10-17T12:01:23;20.40;99.90
13856;DHT22;6998;53.608;9.958;2022-10-17T12:04:03;20.40;99.90
13856;DHT22;6998;53.608;9.958;2022-10-17T12:06:46;20.30;99.90
13856;DHT22;6998;53.608;9.958;2022-10-17T12:09:23;20.10;99.90
13856;DHT22;6998;53.608;9.958;2022-10-17T12:11:55;20.00;99.90
13856;DHT22;6998;53.608;9.958;2022-10-17T12:14:40;19.80;99.90
13856;DHT22;6998;53.608;9.958;2022-10-17T12:17:30;19.60;99.90
13856;DHT22;6998;53.608;9.958;2022-10-17T12:20:25;19.40;99.90
13856;DHT22;6998;53.608;9.958;2022-10-17T12:22:54;19.20;99.90
13856;DHT22;6998;53.608;9.958;2022-10-17T12:25:25;19.00;99.90
13856;DHT22;6998;53.608;9.958;2022-10-17T12:28:09;18.80;99.90
13856;DHT22;6998;53.608;9.958;2022-10-17T12:30:48;18.80;99.90
13856;DHT22;6998;53.608;9.958;2022-10-17T12:33:17;18.80;99.90
13856;DHT22;6998;53.608;9.958;2022-10-17T12:35:47;18.60;99.90
13856;DHT22;6998;53.608;9.958;2022-10-17T12:38:21;18.60;99.90
13856;DHT22;6998;53.608;9.958;2022-10-17T12:41:05;18.50;99.90
13856;DHT22;6998;53.608;9.958;2022-10-17T12:43:56;18.50;99.90
13856;DHT22;6998;53.608;9.958;2022-10-17T12:46:56;18.50;99.90
13856;DHT22;6998;53.608;9.958;2022-10-17T12:49:36;18.60;99.90
13856;DHT22;6998;53.608;9.958;2022-10-17T12:54:58;18.70;99.90
13856;DHT22;6998;53.608;9.958;2022-10-17T12:57:31;18.70;99.90
13856;DHT22;6998;53.608;9.958;2022-10-17T13:00:02;18.70;99.90
13856;DHT22;6998;53.608;9.958;2022-10-17T13:02:30;18.70;99.90
13856;DHT22;6998;53.608;9.958;2022-10-17T13:05:04;18.60;99.90
13856;DHT22;6998;53.608;9.958;2022-10-17T13:07:33;18.60;99.90
13856;DHT22;6998;53.608;9.958;2022-10-17T13:10:00;18.50;99.90
13856;DHT22;6998;53.608;9.958;2022-10-17T13:12:32;18.50;99.90
13856;DHT22;6998;53.608;9.958;2022-10-17T13:15:03;18.40;99.90
13856;DHT22;6998;53.608;9.958;2022-10-17T13:17:31;18.40;99.90
13856;DHT22;6998;53.608;9.958;2022-10-17T13:19:59;18.40;99.90
13856;DHT22;6998;53.608;9.958;2022-10-17T13:22:27;18.30;99.90
13856;DHT22;6998;53.608;9.958;2022-10-17T13:25:05;18.30;99.90
13856;DHT22;6998;53.608;9.958;2022-10-17T13:27:35;18.20;99.90
13856;DHT22;6998;53.608;9.958;2022-10-17T13:30:20;18.20;99.90
13856;DHT22;6998;53.608;9.958;2022-10-17T13:32:47;18.20;99.90
13856;DHT22;6998;53.608;9.958;2022-10-17T13:35:16;18.10;99.90
13856;DHT22;6998;53.608;9.958;2022-10-17T13:37:48;18.10;99.90
13856;DHT22;6998;53.608;9.958;2022-10-17T13:40:17;18.10;99.90
13856;DHT22;6998;53.608;9.958;2022-10-17T13:42:46;18.10;99.90
13856;DHT22;6998;53.608;9.958;2022-10-17T13:45:18;18.00;99.90
13856;DHT22;6998;53.608;9.958;2022-10-17T13:47:46;18.00;99.90
13856;DHT22;6998;53.608;9.958;2022-10-17T13:50:22;18.00;99.90
13856;DHT22;6998;53.608;9.958;2022-10-17T13:53:06;18.00;99.90
13856;DHT22;6998;53.608;9.958;2022-10-17T13:55:32;17.90;99.90
13856;DHT22;6998;53.608;9.958;2022-10-17T13:58:14;18.00;99.90
13856;DHT22;6998;53.608;9.958;2022-10-17T14:00:42;18.00;99.90
13856;DHT22;6998;53.608;9.958;2022-10-17T14:03:09;17.90;99.90
13856;DHT22;6998;53.608;9.958;2022-10-17T14:05:58;17.90;99.90
13856;DHT22;6998;53.608;9.958;2022-10-17T14:08:26;17.90;99.90
13856;DHT22;6998;53.608;9.958;2022-10-17T14:10:54;17.80;99.90
13856;DHT22;6998;53.608;9.958;2022-10-17T14:13:24;17.80;99.90
13856;DHT22;6998;53.608;9.958;2022-10-17T14:15:53;17.80;99.90
13856;DHT22;6998;53.608;9.958;2022-10-17T14:18:24;17.70;99.90
13856;DHT22;6998;53.608;9.958;2022-10-17T14:20:52;17.70;99.90
13856;DHT22;6998;53.608;9.958;2022-10-17T14:23:32;17.70;99.90
13856;DHT22;6998;53.608;9.958;2022-10-17T14:26:09;17.70;99.90
13856;DHT22;6998;53.608;9.958;2022-10-17T14:28:38;17.70;99.90
13856;DHT22;6998;53.608;9.958;2022-10-17T14:31:11;17.80;99.90
13856;DHT22;6998;53.608;9.958;2022-10-17T14:33:43;17.70;99.90
13856;DHT22;6998;53.608;9.958;2022-10-17T14:36:10;17.70;99.90
13856;DHT22;6998;53.608;9.958;2022-10-17T14:38:43;17.80;99.90
13856;DHT22;6998;53.608;9.958;2022-10-17T14:41:15;17.70;99.90
13856;DHT22;6998;53.608;9.958;2022-10-17T14:43:51;17.80;99.90
13856;DHT22;6998;53.608;9.958;2022-10-17T14:46:19;17.80;99.90
13856;DHT22;6998;53.608;9.958;2022-10-17T14:48:51;17.80;99.90
13856;DHT22;6998;53.608;9.958;2022-10-17T14:51:19;17.70;99.90
13856;DHT22;6998;53.608;9.958;2022-10-17T14:53:59;17.90;99.90
13856;DHT22;6998;53.608;9.958;2022-10-17T14:56:32;17.80;99.90
13856;DHT22;6998;53.608;9.958;2022-10-17T14:59:01;17.80;99.90
13856;DHT22;6998;53.608;9.958;2022-10-17T15:01:30;17.80;99.90
13856;DHT22;6998;53.608;9.958;2022-10-17T15:03:57;17.80;99.90
13856;DHT22;6998;53.608;9.958;2022-10-17T15:06:27;17.80;99.90
13856;DHT22;6998;53.608;9.958;2022-10-17T15:08:54;17.80;99.90
13856;DHT22;6998;53.608;9.958;2022-10-17T15:11:20;17.70;99.90
13856;DHT22;6998;53.608;9.958;2022-10-17T15:13:47;17.80;99.90
13856;DHT22;6998;53.608;9.958;2022-10-17T15:16:18;17.80;99.90
13856;DHT22;6998;53.608;9.958;2022-10-17T15:18:45;17.80;99.90
13856;DHT22;6998;53.608;9.958;2022-10-17T15:21:13;17.70;99.90
13856;DHT22;6998;53.608;9.958;2022-10-17T15:23:40;17.70;99.90
13856;DHT22;6998;53.608;9.958;2022-10-17T15:26:15;17.70;99.90
13856;DHT22;6998;53.608;9.958;2022-10-17T15:28:43;17.70;99.90
13856;DHT22;6998;53.608;9.958;2022-10-17T15:31:12;17.70;99.90
13856;DHT22;6998;53.608;9.958;2022-10-17T15:33:40;17.70;99.90
13856;DHT22;6998;53.608;9.958;2022-10-17T15:36:21;17.60;99.90
13856;DHT22;6998;53.608;9.958;2022-10-17T15:38:49;17.60;99.90
13856;DHT22;6998;53.608;9.958;2022-10-17T15:41:18;17.60;99.90
13856;DHT22;6998;53.608;9.958;2022-10-17T15:43:45;17.70;99.90
13856;DHT22;6998;53.608;9.958;2022-10-17T15:46:14;17.70;99.90
13856;DHT22;6998;53.608;9.958;2022-10-17T15:48:44;17.70;99.90
13856;DHT22;6998;53.608;9.958;2022-10-17T15:51:10;17.60;99.90
13856;DHT22;6998;53.608;9.958;2022-10-17T15:53:37;17.50;99.90
13856;DHT22;6998;53.608;9.958;2022-10-17T15:56:05;17.50;99.90
13856;DHT22;6998;53.608;9.958;2022-10-17T15:58:35;17.50;99.90
13856;DHT22;6998;53.608;9.958;2022-10-17T16:01:03;17.50;99.90
13856;DHT22;6998;53.608;9.958;2022-10-17T16:03:30;17.40;99.90
13856;DHT22;6998;53.608;9.958;2022-10-17T16:05:59;17.40;99.90
13856;DHT22;6998;53.608;9.958;2022-10-17T16:08:25;17.50;99.90